Time;durP1;ratioP1;P1;durP2;ratioP2;P2;SDS_P1;SDS_P2;PMS_P1;PMS_P2;Temp;Humidity;BMP_temperature;BMP_pressure;BME280_temperature;BME280_humidity;BME280_pressure;Samples;Min_cycle;Max_cycle;Signal;HPM_P1;HPM_P2
2024/02/08 00:00:07;;;;;;;1.07;1.07;;;6.20;99.90;;;;;;5005819;28;20465;-60
2024/02/08 00:02:33;;;;;;;1.07;0.97;;;6.20;99.90;;;;;;5004036;28;20417;-59
2024/02/08 00:04:58;;;;;;;1.20;1.10;;;6.20;99.90;;;;;;5003378;28;20427;-60
2024/02/08 00:07:24;;;;;;;1.10;1.10;;;6.20;99.90;;;;;;5008658;28;20792;-60
2024/02/08 00:09:51;;;;;;;1.30;1.20;;;6.20;99.90;;;;;;5004338;28;20238;-60
2024/02/08 00:12:17;;;;;;;1.23;1.00;;;6.20;99.90;;;;;;5009605;28;20534;-60
2024/02/08 00:14:42;;;;;;;0.90;0.90;;;6.20;99.90;;;;;;5004031;28;20430;-60
2024/02/08 00:17:08;;;;;;;1.00;0.90;;;6.20;99.90;;;;;;5007354;28;20412;-60
2024/02/08 00:19:33;;;;;;;1.17;1.10;;;6.20;99.90;;;;;;5006130;28;20647;-59
2024/02/08 00:21:59;;;;;;;0.80;0.80;;;6.20;99.90;;;;;;5007777;28;20185;-60
2024/02/08 00:24:25;;;;;;;0.97;0.90;;;6.20;99.90;;;;;;5007727;28;20185;-59
2024/02/08 00:26:50;;;;;;;0.80;0.80;;;6.20;99.90;;;;;;5005612;28;20640;-59
2024/02/08 00:29:16;;;;;;;0.90;0.90;;;6.20;99.90;;;;;;5007375;28;20196;-59
2024/02/08 00:31:42;;;;;;;0.80;0.80;;;6.20;99.90;;;;;;5008504;28;20214;-59
2024/02/08 00:34:08;;;;;;;0.70;0.70;;;6.30;99.90;;;;;;5000227;28;20180;-60
2024/02/08 00:36:34;;;;;;;0.90;0.90;;;6.30;99.90;;;;;;5005787;28;20632;-59
2024/02/08 00:39:06;;;;;;;0.90;0.90;;;6.30;99.90;;;;;;5009017;28;20470;-60
2024/02/08 00:41:32;;;;;;;0.87;0.87;;;6.30;99.90;;;;;;5004930;28;20295;-59
2024/02/08 00:43:58;;;;;;;0.90;0.80;;;6.30;99.90;;;;;;5005237;28;20430;-60
2024/02/08 00:46:24;;;;;;;0.90;0.90;;;6.30;99.90;;;;;;5003284;28;20431;-60
2024/02/08 00:48:49;;;;;;;1.00;1.00;;;6.30;99.90;;;;;;5009086;28;20199;-60
2024/02/08 00:51:16;;;;;;;0.90;0.90;;;6.30;99.90;;;;;;5008397;28;20191;-60
2024/02/08 00:53:44;;;;;;;1.07;1.00;;;6.30;99.90;;;;;;5004120;28;20199;-60
2024/02/08 00:56:13;;;;;;;0.70;0.70;;;6.30;99.90;;;;;;5003348;28;20427;-60
2024/02/08 00:58:39;;;;;;;1.30;1.20;;;6.40;99.90;;;;;;5004207;28;20946;-60
2024/02/08 01:01:07;;;;;;;0.90;0.90;;;6.30;99.90;;;;;;5008486;28;20897;-59
2024/02/08 01:03:36;;;;;;;0.80;0.80;;;6.40;99.90;;;;;;5008339;28;20573;-59
2024/02/08 01:06:02;;;;;;;0.93;0.93;;;6.40;99.90;;;;;;5006311;28;20928;-59
2024/02/08 01:08:29;;;;;;;0.87;0.87;;;6.40;99.90;;;;;;5004925;28;21002;-59
2024/02/08 01:10:54;;;;;;;1.00;1.00;;;6.40;99.90;;;;;;5012137;28;20600;-61
2024/02/08 01:13:21;;;;;;;1.00;1.00;;;6.40;99.90;;;;;;5004364;28;20546;-60
2024/02/08 01:15:47;;;;;;;0.93;0.93;;;6.40;99.90;;;;;;5002820;28;20172;-61
2024/02/08 01:18:13;;;;;;;1.20;1.10;;;6.40;99.90;;;;;;4999510;28;20940;-60
2024/02/08 01:20:39;;;;;;;0.87;0.87;;;6.40;99.90;;;;;;5006015;28;20252;-60
2024/02/08 01:23:05;;;;;;;1.07;1.00;;;6.40;99.90;;;;;;5002873;28;20188;-60
2024/02/08 01:25:31;;;;;;;1.13;1.03;;;6.40;99.90;;;;;;5007711;28;20790;-60
2024/02/08 01:27:56;;;;;;;0.90;0.90;;;6.40;99.90;;;;;;5008501;28;20215;-61
2024/02/08 01:30:24;;;;;;;1.10;1.00;;;6.40;99.90;;;;;;5005302;28;20853;-59
2024/02/08 01:32:51;;;;;;;1.13;1.03;;;6.40;99.90;;;;;;5003855;28;20177;-60
2024/02/08 01:35:21;;;;;;;1.10;1.10;;;6.40;99.90;;;;;;5001686;28;20435;-60
2024/02/08 01:37:47;;;;;;;0.80;0.80;;;6.40;99.90;;;;;;5007586;28;20411;-60
2024/02/08 01:40:16;;;;;;;0.80;0.80;;;6.40;99.90;;;;;;5003646;28;20456;-60
2024/02/08 01:42:48;;;;;;;1.57;0.90;;;6.40;99.90;;;;;;5007238;28;20427;-60
2024/02/08 01:45:29;;;;;;;0.80;0.80;;;6.40;99.90;;;;;;5004433;28;20419;-59
2024/02/08 01:47:57;;;;;;;1.17;0.90;;;6.40;99.90;;;;;;5005354;28;20427;-61
2024/02/08 01:50:23;;;;;;;0.80;0.80;;;6.40;99.90;;;;;;5003743;28;20483;-59
2024/02/08 01:52:50;;;;;;;0.80;0.80;;;6.40;99.90;;;;;;5007103;28;20435;-58
2024/02/08 01:55:17;;;;;;;1.30;0.90;;;6.40;99.90;;;;;;5005911;28;20187;-58
2024/02/08 01:57:44;;;;;;;0.90;0.90;;;6.40;99.90;;;;;;5004659;28;20566;-61
2024/02/08 02:00:11;;;;;;;3.90;1.03;;;6.40;99.90;;;;;;5004790;28;20454;-60
2024/02/08 02:02:38;;;;;;;0.80;0.80;;;6.40;99.90;;;;;;5008466;28;20431;-60
2024/02/08 02:05:04;;;;;;;0.83;0.83;;;6.40;99.90;;;;;;5007544;28;20449;-60
2024/02/08 02:07:30;;;;;;;0.77;0.77;;;6.40;99.90;;;;;;5007571;28;20447;-61
2024/02/08 02:09:55;;;;;;;1.27;0.90;;;6.40;99.90;;;;;;5007964;28;20196;-59
2024/02/08 02:12:25;;;;;;;0.80;0.80;;;6.40;99.90;;;;;;5010746;28;20686;-59
2024/02/08 02:14:52;;;;;;;0.93;0.90;;;6.40;99.90;;;;;;5008351;28;20176;-59
2024/02/08 02:17:26;;;;;;;1.03;0.93;;;6.40;99.90;;;;;;5010191;28;20428;-59
2024/02/08 02:19:52;;;;;;;0.73;0.73;;;6.40;99.90;;;;;;5007713;28;21207;-59
2024/02/08 02:22:20;;;;;;;0.90;0.90;;;6.40;99.90;;;;;;5011029;28;20470;-59
2024/02/08 02:24:49;;;;;;;1.90;1.13;;;6.40;99.90;;;;;;5009132;28;20514;-60
2024/02/08 02:27:15;;;;;;;0.90;0.90;;;6.40;99.90;;;;;;5009492;28;20522;-60
2024/02/08 02:29:44;;;;;;;0.80;0.80;;;6.40;99.90;;;;;;5009669;28;20505;-60
2024/02/08 02:32:20;;;;;;;0.80;0.80;;;6.40;99.90;;;;;;5010306;28;20467;-60
2024/02/08 02:34:50;;;;;;;1.87;0.80;;;6.40;99.90;;;;;;5009229;28;20435;-61
2024/02/08 02:37:18;;;;;;;2.20;0.70;;;6.40;99.90;;;;;;5007517;28;20427;-59
2024/02/08 02:39:44;;;;;;;0.80;0.80;;;6.40;99.90;;;;;;5003582;28;20475;-60
2024/02/08 02:42:10;;;;;;;1.10;0.80;;;6.40;99.90;;;;;;5008198;28;20957;-58
2024/02/08 02:44:36;;;;;;;0.73;0.73;;;6.40;99.90;;;;;;5007330;28;20482;-60
2024/02/08 02:47:04;;;;;;;0.90;0.90;;;6.40;99.90;;;;;;5004625;28;20231;-59
2024/02/08 02:49:30;;;;;;;0.80;0.80;;;6.40;99.90;;;;;;5010573;28;20632;-59
2024/02/08 02:51:59;;;;;;;0.73;0.73;;;6.40;99.90;;;;;;5005407;28;20545;-60
2024/02/08 02:54:30;;;;;;;0.77;0.77;;;6.40;99.90;;;;;;5007556;28;20518;-60
2024/02/08 02:56:56;;;;;;;0.90;0.90;;;6.40;99.90;;;;;;5006740;28;20862;-60
2024/02/08 02:59:26;;;;;;;0.77;0.77;;;6.40;99.90;;;;;;5012510;28;20442;-60
2024/02/08 03:01:55;;;;;;;0.70;0.70;;;6.40;99.90;;;;;;5009291;28;21012;-59
2024/02/08 03:04:22;;;;;;;0.80;0.80;;;6.40;99.90;;;;;;5011351;28;20427;-60
2024/02/08 03:06:52;;;;;;;0.80;0.80;;;6.40;99.90;;;;;;5003223;28;20446;-58
2024/02/08 03:09:23;;;;;;;0.80;0.80;;;6.40;99.90;;;;;;5007981;28;20451;-58
2024/02/08 03:11:49;;;;;;;2.33;1.00;;;6.40;99.90;;;;;;5008891;28;20456;-58
2024/02/08 03:14:15;;;;;;;0.70;0.70;;;6.40;99.90;;;;;;5009197;28;20423;-60
2024/02/08 03:16:45;;;;;;;0.80;0.80;;;6.40;99.90;;;;;;5006130;28;20435;-59
2024/02/08 03:19:11;;;;;;;0.83;0.83;;;6.40;99.90;;;;;;5010081;28;20930;-60
2024/02/08 03:21:40;;;;;;;0.80;0.80;;;6.40;99.90;;;;;;5008659;28;21186;-59
2024/02/08 03:24:09;;;;;;;4.43;1.00;;;6.40;99.90;;;;;;5007776;28;20522;-60
2024/02/08 03:26:40;;;;;;;0.73;0.73;;;6.40;99.90;;;;;;5002731;28;20523;-59
2024/02/08 03:29:12;;;;;;;0.83;0.83;;;6.40;99.90;;;;;;5008204;28;20459;-60
2024/02/08 03:31:45;;;;;;;1.10;0.90;;;6.40;99.90;;;;;;5009474;28;20455;-60
2024/02/08 03:34:19;;;;;;;1.03;0.80;;;6.40;99.90;;;;;;5010433;28;20489;-61
2024/02/08 03:36:46;;;;;;;1.03;0.90;;;6.40;99.90;;;;;;5007978;28;20431;-59
2024/02/08 03:39:27;;;;;;;0.70;0.70;;;6.40;99.90;;;;;;5009026;28;20451;-59
2024/02/08 03:42:04;;;;;;;0.80;0.80;;;6.40;99.90;;;;;;5006036;28;20474;-59
2024/02/08 03:44:30;;;;;;;0.80;0.80;;;6.40;99.90;;;;;;5008665;28;20825;-59
2024/02/08 03:47:03;;;;;;;0.70;0.70;;;6.40;99.90;;;;;;5007314;28;20506;-59
2024/02/08 03:49:29;;;;;;;1.70;0.80;;;6.40;99.90;;;;;;5007855;28;20587;-59
2024/02/08 03:51:56;;;;;;;1.17;0.90;;;6.40;99.90;;;;;;5009408;28;21112;-60
2024/02/08 03:54:24;;;;;;;0.83;0.83;;;6.40;99.90;;;;;;5015278;28;21048;-59
2024/02/08 03:56:50;;;;;;;0.90;0.90;;;6.40;99.90;;;;;;5004838;28;20492;-60
2024/02/08 03:59:26;;;;;;;0.80;0.80;;;6.50;99.90;;;;;;5001415;28;20966;-59
2024/02/08 04:02:00;;;;;;;0.90;0.80;;;6.50;99.90;;;;;;5004557;28;20446;-59
2024/02/08 04:04:29;;;;;;;1.00;0.90;;;6.50;99.90;;;;;;5009652;28;20480;-59
2024/02/08 04:07:45;;;;;;;2.80;1.47;;;6.50;99.90;;;;;;5008525;28;20458;-60
2024/02/08 04:10:18;;;;;;;1.00;0.90;;;6.50;99.90;;;;;;5005338;28;20435;-59
2024/02/08 04:53:45;;;;;;;1.00;1.00;;;6.60;99.90;;;;;;4995754;28;20485;-60
2024/02/08 04:56:11;;;;;;;1.20;1.10;;;6.60;99.90;;;;;;4997314;28;20432;-57
2024/02/08 04:58:45;;;;;;;1.33;1.20;;;6.60;99.90;;;;;;5001351;28;20528;-59
2024/02/08 05:01:11;;;;;;;2.10;1.00;;;6.60;99.90;;;;;;5003993;28;21027;-61
2024/02/08 05:03:44;;;;;;;2.00;1.30;;;6.60;99.90;;;;;;5002778;28;20481;-59
2024/02/08 05:06:11;;;;;;;2.03;0.97;;;6.60;99.90;;;;;;5009623;28;20510;-55
2024/02/08 05:08:38;;;;;;;1.23;1.13;;;6.60;99.90;;;;;;5001541;28;20459;-59
2024/02/08 05:11:09;;;;;;;1.20;1.10;;;6.60;99.90;;;;;;5000064;28;20466;-59
2024/02/08 05:13:39;;;;;;;1.30;1.20;;;6.60;99.90;;;;;;5000990;28;20518;-60
2024/02/08 05:16:06;;;;;;;1.30;1.20;;;6.60;99.90;;;;;;5004564;28;20417;-60
2024/02/08 05:18:32;;;;;;;1.10;1.10;;;6.60;99.90;;;;;;5001376;28;20447;-58
2024/02/08 05:20:58;;;;;;;1.50;1.10;;;6.60;99.90;;;;;;5002317;28;20521;-59
2024/02/08 05:23:25;;;;;;;1.63;1.40;;;6.60;99.90;;;;;;4997960;28;20432;-59
2024/02/08 05:25:52;;;;;;;1.47;1.37;;;6.60;99.90;;;;;;5003477;28;20188;-59
2024/02/08 05:28:18;;;;;;;1.30;1.20;;;6.60;99.90;;;;;;5000801;28;20455;-59
2024/02/08 05:30:45;;;;;;;1.17;1.07;;;6.60;99.90;;;;;;5000405;28;20459;-59
2024/02/08 05:33:11;;;;;;;1.30;1.20;;;6.60;99.90;;;;;;5002063;28;20431;-59
2024/02/08 05:35:39;;;;;;;2.70;1.50;;;6.70;99.90;;;;;;4995718;28;20483;-59
2024/02/08 05:38:05;;;;;;;1.97;1.20;;;6.60;99.90;;;;;;5005917;28;20437;-57
2024/02/08 05:40:31;;;;;;;1.10;1.10;;;6.60;99.90;;;;;;4998302;28;20662;-61
2024/02/08 05:42:59;;;;;;;1.17;1.07;;;6.70;99.90;;;;;;4999196;28;20529;-60
2024/02/08 05:45:30;;;;;;;1.70;1.60;;;6.70;99.90;;;;;;5002047;28;20178;-58
2024/02/08 05:48:05;;;;;;;3.57;1.40;;;6.70;99.90;;;;;;4994570;28;20436;-58
2024/02/08 05:50:34;;;;;;;2.23;2.03;;;6.70;99.90;;;;;;5004133;28;20459;-61
2024/02/08 05:53:06;;;;;;;1.43;1.33;;;6.70;99.90;;;;;;5003055;28;20486;-59
2024/02/08 05:55:34;;;;;;;1.50;1.40;;;6.70;99.90;;;;;;5006587;28;20794;-60
2024/02/08 05:58:03;;;;;;;2.13;1.43;;;6.70;99.90;;;;;;5001539;28;20880;-59
2024/02/08 06:00:35;;;;;;;2.13;1.47;;;6.70;99.90;;;;;;5007742;28;20427;-60
2024/02/08 06:03:03;;;;;;;3.03;1.63;;;6.70;99.90;;;;;;5000745;28;20437;-59
2024/02/08 06:05:31;;;;;;;3.60;2.13;;;6.70;99.90;;;;;;5008471;28;20430;-60
2024/02/08 06:08:02;;;;;;;1.50;1.40;;;6.70;99.90;;;;;;5004571;28;20441;-61
2024/02/08 06:10:45;;;;;;;2.07;1.73;;;6.70;99.90;;;;;;5000196;28;20482;-60
2024/02/08 06:13:14;;;;;;;3.77;2.70;;;6.70;99.90;;;;;;5005860;28;20435;-59
2024/02/08 06:15:46;;;;;;;1.70;1.60;;;6.70;99.90;;;;;;5005952;28;20438;-59
2024/02/08 06:18:30;;;;;;;2.07;1.50;;;6.70;99.90;;;;;;5002651;28;20970;-58
2024/02/08 06:21:12;;;;;;;2.10;1.50;;;6.70;99.90;;;;;;5005162;28;20430;-59
2024/02/08 06:23:45;;;;;;;2.83;1.60;;;6.70;99.90;;;;;;5005583;28;20484;-60
2024/02/08 06:28:46;;;;;;;3.73;1.30;;;6.80;99.90;;;;;;5004009;28;20451;-61
2024/02/08 06:31:17;;;;;;;1.57;1.40;;;6.70;99.90;;;;;;5003537;28;20543;-60
2024/02/08 06:34:42;;;;;;;1.87;1.40;;;6.70;99.90;;;;;;5000564;28;21228;-59
2024/02/08 06:36:33;;;;;;;1.53;1.30;;;6.70;99.90;;;;;;4998211;28;20891;-60
2024/02/08 06:39:19;;;;;;;1.50;1.40;;;6.70;99.90;;;;;;5005733;28;20459;-60
2024/02/08 06:41:52;;;;;;;1.40;1.30;;;6.70;99.90;;;;;;5005765;28;20443;-61
2024/02/08 06:47:29;;;;;;;2.03;1.53;;;6.70;99.90;;;;;;5003357;28;20431;-60
2024/02/08 07:39:34;;;;;;;2.17;2.00;;;6.90;99.90;;;;;;5006469;28;20437;-60
2024/02/08 07:42:12;;;;;;;1.87;1.77;;;6.90;99.90;;;;;;5007030;28;20479;-60
2024/02/08 07:44:39;;;;;;;6.30;2.10;;;6.90;99.90;;;;;;5009964;28;20435;-60
2024/02/08 07:47:05;;;;;;;5.30;1.90;;;6.90;99.90;;;;;;5003893;28;21109;-60
2024/02/08 07:49:43;;;;;;;1.80;1.70;;;6.90;99.90;;;;;;5006770;28;20488;-60
2024/02/08 07:52:19;;;;;;;5.43;3.20;;;6.90;99.90;;;;;;5008537;28;20901;-61
2024/02/08 07:54:56;;;;;;;2.60;1.93;;;6.90;99.90;;;;;;5012781;28;20466;-61
2024/02/08 07:57:26;;;;;;;2.40;1.90;;;6.90;99.90;;;;;;5004415;28;20434;-60
2024/02/08 07:59:53;;;;;;;7.20;2.27;;;7.00;99.90;;;;;;5001929;28;20459;-60
2024/02/08 08:02:23;;;;;;;2.60;2.40;;;7.00;99.90;;;;;;5007761;28;20493;-60
2024/02/08 08:04:52;;;;;;;4.70;1.87;;;7.00;99.90;;;;;;5008514;28;20446;-60
2024/02/08 08:07:23;;;;;;;1.70;1.60;;;7.00;99.90;;;;;;5005490;28;20501;-60
2024/02/08 08:09:59;;;;;;;1.73;1.63;;;7.00;99.90;;;;;;5005642;28;21227;-60
2024/02/08 08:12:28;;;;;;;1.90;1.70;;;7.10;99.90;;;;;;5009449;28;20447;-60
2024/02/08 08:19:52;;;;;;;2.37;2.13;;;7.20;99.90;;;;;;5007710;28;21003;-61
2024/02/08 08:27:47;;;;;;;1.73;1.50;;;7.30;99.90;;;;;;5009082;28;21001;-60
2024/02/08 08:30:27;;;;;;;2.40;2.20;;;7.30;99.90;;;;;;5007803;28;20482;-61
2024/02/08 08:33:08;;;;;;;3.47;1.90;;;7.40;99.90;;;;;;5012228;28;20513;-60
2024/02/08 08:35:45;;;;;;;4.60;2.07;;;7.40;99.90;;;;;;5011821;28;20419;-61
2024/02/08 08:40:47;;;;;;;2.87;2.17;;;7.40;99.90;;;;;;5009617;28;20443;-60
2024/02/08 08:43:19;;;;;;;1.87;1.77;;;7.40;99.90;;;;;;5006950;28;21016;-60
2024/02/08 08:45:51;;;;;;;1.60;1.50;;;7.40;99.90;;;;;;5009038;28;20438;-60
2024/02/08 08:48:18;;;;;;;2.10;1.90;;;7.40;99.90;;;;;;5002911;28;20443;-60
2024/02/08 08:50:50;;;;;;;1.87;1.67;;;7.40;99.90;;;;;;5007157;28;20462;-60
2024/02/08 08:53:19;;;;;;;1.43;1.33;;;7.40;99.90;;;;;;5008528;28;20434;-60
2024/02/08 08:55:49;;;;;;;2.57;2.00;;;7.40;99.90;;;;;;5006892;28;20458;-60
2024/02/08 08:58:16;;;;;;;2.57;1.77;;;7.40;99.90;;;;;;5004441;28;20437;-59
2024/02/08 09:00:58;;;;;;;2.60;1.70;;;7.40;99.90;;;;;;5009044;28;21000;-60
2024/02/08 09:03:27;;;;;;;1.73;1.63;;;7.40;99.90;;;;;;5005054;28;20472;-60
2024/02/08 09:05:57;;;;;;;2.00;1.80;;;7.40;99.90;;;;;;5001944;28;20446;-60
2024/02/08 09:08:25;;;;;;;5.63;1.90;;;7.40;99.90;;;;;;5003721;28;20451;-60
2024/02/08 09:10:51;;;;;;;5.47;1.50;;;7.50;99.90;;;;;;5008116;28;20478;-60
2024/02/08 09:13:18;;;;;;;1.63;1.53;;;7.50;99.90;;;;;;5010128;28;20473;-60
2024/02/08 09:15:48;;;;;;;2.00;1.57;;;7.40;99.90;;;;;;5011967;28;20786;-61
2024/02/08 09:18:15;;;;;;;7.33;1.73;;;7.50;99.90;;;;;;5004503;28;20522;-60
2024/02/08 09:20:44;;;;;;;1.83;1.60;;;7.50;99.90;;;;;;5006546;28;20423;-60
2024/02/08 09:23:12;;;;;;;1.97;1.70;;;7.50;99.90;;;;;;5003482;28;20435;-61
2024/02/08 09:25:44;;;;;;;1.60;1.50;;;7.60;99.90;;;;;;5007366;28;21087;-60
2024/02/08 09:28:26;;;;;;;1.63;1.53;;;7.60;99.90;;;;;;5003393;28;20432;-61
2024/02/08 09:30:59;;;;;;;2.70;2.50;;;7.60;99.90;;;;;;5008907;28;21324;-59
2024/02/08 09:33:35;;;;;;;3.70;2.00;;;7.60;99.90;;;;;;5006229;28;20443;-60
2024/02/08 09:36:02;;;;;;;2.03;1.90;;;7.70;99.90;;;;;;5004938;28;20419;-61
2024/02/08 09:38:43;;;;;;;1.80;1.70;;;7.70;99.90;;;;;;5007593;28;20450;-61
2024/02/08 09:41:17;;;;;;;2.63;1.40;;;7.80;99.90;;;;;;5005675;28;20587;-61
2024/02/08 09:43:48;;;;;;;1.60;1.50;;;7.80;99.90;;;;;;5007457;28;20441;-60
2024/02/08 09:46:49;;;;;;;1.50;1.40;;;7.80;99.90;;;;;;5001308;28;20497;-59
2024/02/08 09:49:13;;;;;;;2.03;1.70;;;7.90;99.90;;;;;;4999821;28;20466;-60
2024/02/08 09:51:56;;;;;;;1.47;1.37;;;7.90;99.90;;;;;;5005445;28;20800;-61
2024/02/08 09:54:31;;;;;;;3.70;2.33;;;7.90;99.90;;;;;;5000556;28;20938;-60
2024/02/08 09:57:21;;;;;;;2.03;1.83;;;8.00;99.90;;;;;;5004845;28;20427;-60
2024/02/08 10:00:06;;;;;;;1.47;1.37;;;8.00;99.90;;;;;;5004805;28;20508;-61
2024/02/08 10:02:37;;;;;;;1.90;1.70;;;8.00;99.90;;;;;;5002337;28;20426;-60
2024/02/08 10:05:19;;;;;;;1.70;1.60;;;8.00;99.90;;;;;;5006067;28;20454;-60
2024/02/08 10:08:11;;;;;;;5.10;2.97;;;8.10;99.90;;;;;;5006818;28;20439;-60
2024/02/08 10:11:07;;;;;;;1.50;1.40;;;8.10;99.90;;;;;;5005024;28;20486;-60
2024/02/08 10:13:51;;;;;;;1.63;1.37;;;8.10;99.90;;;;;;5010760;28;20423;-61
2024/02/08 10:16:20;;;;;;;1.80;1.47;;;8.20;99.90;;;;;;5005333;28;20423;-60
2024/02/08 10:19:03;;;;;;;1.43;1.33;;;8.20;99.90;;;;;;5004253;28;21056;-60
2024/02/08 10:21:30;;;;;;;2.00;1.70;;;8.20;99.90;;;;;;5008235;28;20435;-61
2024/02/08 10:23:59;;;;;;;1.60;1.50;;;8.20;99.90;;;;;;5007573;28;20517;-60
2024/02/08 10:26:38;;;;;;;1.40;1.30;;;8.20;99.90;;;;;;5005076;28;20427;-61
2024/02/08 10:29:07;;;;;;;2.40;1.20;;;8.20;99.90;;;;;;5006267;28;20981;-60
2024/02/08 10:31:37;;;;;;;1.90;1.60;;;8.20;99.90;;;;;;5006037;28;20598;-60
2024/02/08 10:34:09;;;;;;;1.50;1.40;;;8.20;99.90;;;;;;5007523;28;20439;-62
2024/02/08 10:36:44;;;;;;;1.37;1.20;;;8.30;99.90;;;;;;5009868;28;20494;-60
2024/02/08 10:39:26;;;;;;;4.03;1.30;;;8.40;99.90;;;;;;5011582;28;20438;-61
2024/02/08 10:41:58;;;;;;;1.20;1.10;;;8.40;99.90;;;;;;5006452;28;20487;-59
2024/02/08 10:44:29;;;;;;;1.63;1.20;;;8.50;99.90;;;;;;5010717;28;20459;-60
2024/02/08 10:47:08;;;;;;;1.40;1.20;;;8.50;99.90;;;;;;5010314;28;20805;-60
2024/02/08 10:49:42;;;;;;;1.30;1.20;;;8.60;99.90;;;;;;5011621;28;20515;-60
2024/02/08 10:52:11;;;;;;;2.53;1.20;;;8.70;99.90;;;;;;5010572;28;20544;-60
2024/02/08 10:54:42;;;;;;;1.20;1.10;;;8.70;99.90;;;;;;5010958;28;20465;-61
2024/02/08 10:57:33;;;;;;;2.43;1.47;;;8.80;99.90;;;;;;5012048;28;20419;-60
2024/02/08 10:59:58;;;;;;;7.00;1.13;;;8.90;99.90;;;;;;5009005;28;20463;-61
2024/02/08 11:02:35;;;;;;;2.57;1.80;;;8.90;99.90;;;;;;5011169;28;20474;-61
2024/02/08 11:05:21;;;;;;;2.43;1.20;;;9.00;99.90;;;;;;5004386;28;20847;-60
2024/02/08 11:07:48;;;;;;;3.63;2.10;;;9.10;99.90;;;;;;5008124;28;20410;-61
2024/02/08 11:10:20;;;;;;;1.17;1.07;;;9.20;99.90;;;;;;5008917;28;20455;-61
2024/02/08 11:12:50;;;;;;;1.23;1.13;;;9.20;99.90;;;;;;5008373;28;20442;-60
2024/02/08 11:15:29;;;;;;;1.43;1.30;;;9.30;99.90;;;;;;5007007;28;20474;-59
2024/02/08 11:17:55;;;;;;;0.90;0.90;;;9.30;99.90;;;;;;5005109;28;20538;-60
2024/02/08 11:20:42;;;;;;;1.40;1.30;;;9.30;99.90;;;;;;5010647;28;20435;-61
2024/02/08 11:23:23;;;;;;;1.77;1.57;;;9.30;99.90;;;;;;5013771;28;20837;-61
2024/02/08 11:25:52;;;;;;;1.20;1.10;;;9.30;99.90;;;;;;5004763;28;20427;-59
2024/02/08 11:28:27;;;;;;;2.30;1.20;;;9.40;99.90;;;;;;5008732;28;20443;-60
2024/02/08 11:30:53;;;;;;;1.57;1.27;;;9.40;99.90;;;;;;5005074;28;20454;-59
2024/02/08 11:33:32;;;;;;;1.60;1.20;;;9.50;99.90;;;;;;5007131;28;20523;-60
2024/02/08 11:36:16;;;;;;;1.17;1.07;;;9.50;99.90;;;;;;5005727;28;20423;-60
2024/02/08 11:38:46;;;;;;;0.90;0.90;;;9.60;99.90;;;;;;5010156;28;20455;-60
2024/02/08 11:41:14;;;;;;;2.40;1.27;;;9.70;99.90;;;;;;5008901;28;20462;-61
2024/02/08 11:43:48;;;;;;;1.30;1.20;;;9.70;99.90;;;;;;5009592;28;20439;-60
2024/02/08 11:46:18;;;;;;;1.33;1.23;;;9.80;99.90;;;;;;5005934;28;20437;-59
2024/02/08 11:48:46;;;;;;;4.77;2.03;;;9.80;99.90;;;;;;5004084;28;20455;-60
2024/02/08 11:51:16;;;;;;;7.70;2.40;;;9.80;99.90;;;;;;5005655;28;20892;-60
2024/02/08 11:53:47;;;;;;;1.20;1.10;;;9.80;99.90;;;;;;5008725;28;20520;-60
2024/02/08 11:56:15;;;;;;;2.57;1.27;;;9.80;99.90;;;;;;5007324;28;20458;-60
2024/02/08 11:58:42;;;;;;;2.60;1.40;;;9.70;99.90;;;;;;5009282;28;20968;-60
2024/02/08 12:01:13;;;;;;;2.50;1.83;;;9.70;99.90;;;;;;5008401;28;20505;-61
2024/02/08 12:03:42;;;;;;;3.17;1.90;;;9.80;99.90;;;;;;5005984;28;20435;-60
2024/02/08 12:06:17;;;;;;;3.70;1.63;;;9.80;99.90;;;;;;5007516;28;20431;-60
2024/02/08 12:09:03;;;;;;;6.57;1.80;;;9.80;99.90;;;;;;5006812;28;20825;-61
2024/02/08 12:11:30;;;;;;;6.40;1.50;;;9.80;99.90;;;;;;5004451;28;20456;-60
2024/02/08 12:14:07;;;;;;;9.60;2.33;;;9.90;99.90;;;;;;5005264;28;20495;-60
2024/02/08 12:16:38;;;;;;;7.47;2.50;;;9.90;99.90;;;;;;5005627;28;20429;-60
2024/02/08 12:19:09;;;;;;;8.30;2.00;;;9.90;99.90;;;;;;5008037;28;20438;-61
2024/02/08 12:21:35;;;;;;;10.40;2.93;;;10.00;99.90;;;;;;5007873;28;20597;-60
2024/02/08 12:24:04;;;;;;;6.13;2.10;;;10.00;99.90;;;;;;5007394;28;20446;-60
2024/02/08 12:26:32;;;;;;;5.40;2.50;;;9.90;99.90;;;;;;5008889;28;20435;-60
2024/02/08 12:29:02;;;;;;;5.73;3.70;;;9.90;99.90;;;;;;5005535;28;20488;-59
2024/02/08 12:31:32;;;;;;;6.43;1.87;;;9.90;99.90;;;;;;5008385;28;20459;-60
2024/02/08 12:33:59;;;;;;;14.63;3.23;;;9.80;99.90;;;;;;5001752;28;20442;-60
2024/02/08 12:36:30;;;;;;;11.00;3.00;;;9.80;99.90;;;;;;5007267;28;20510;-60
2024/02/08 12:39:00;;;;;;;9.53;3.20;;;9.80;99.90;;;;;;5007032;28;20522;-61
2024/02/08 12:41:26;;;;;;;7.47;2.57;;;9.80;99.90;;;;;;5008437;28;20432;-56
2024/02/08 12:43:52;;;;;;;12.73;3.57;;;9.80;99.90;;;;;;5008546;28;20442;-55
2024/02/08 12:46:19;;;;;;;12.97;4.20;;;9.80;99.90;;;;;;5006016;28;20432;-56
2024/02/08 12:48:47;;;;;;;11.30;3.50;;;9.80;99.90;;;;;;5004196;28;20456;-57
2024/02/08 12:51:20;;;;;;;14.13;4.80;;;9.80;99.90;;;;;;5006902;28;20467;-57
2024/02/08 12:53:46;;;;;;;15.60;4.10;;;9.80;99.90;;;;;;5007025;28;20415;-55
2024/02/08 12:56:12;;;;;;;11.00;3.37;;;9.70;99.90;;;;;;5013589;28;20423;-56
2024/02/08 12:58:39;;;;;;;10.87;5.13;;;9.80;99.90;;;;;;5007773;28;20783;-57
2024/02/08 13:01:05;;;;;;;20.80;3.80;;;9.80;99.90;;;;;;5006861;28;20184;-57
2024/02/08 13:03:36;;;;;;;19.30;5.20;;;9.80;99.90;;;;;;5005287;28;20435;-58
2024/02/08 13:06:03;;;;;;;18.50;4.30;;;9.90;99.90;;;;;;5007878;28;20431;-55
2024/02/08 13:08:33;;;;;;;10.17;3.77;;;10.00;99.90;;;;;;5005902;28;20972;-57
2024/02/08 13:11:00;;;;;;;19.90;4.87;;;10.10;99.90;;;;;;5000460;28;20805;-57
2024/02/08 13:13:27;;;;;;;13.97;3.50;;;10.20;99.90;;;;;;5007909;28;20419;-58
2024/02/08 13:15:59;;;;;;;18.37;3.90;;;10.20;99.90;;;;;;5008916;28;20795;-57
2024/02/08 13:18:31;;;;;;;12.93;2.80;;;10.20;99.90;;;;;;4999839;28;20442;-57
2024/02/08 13:20:58;;;;;;;10.43;3.30;;;10.20;99.90;;;;;;5001441;28;20463;-57
2024/02/08 13:23:24;;;;;;;13.53;3.53;;;10.20;99.90;;;;;;5007909;28;21035;-58
2024/02/08 13:25:54;;;;;;;11.60;3.30;;;10.20;99.90;;;;;;5004746;28;20894;-57
2024/02/08 13:28:23;;;;;;;15.23;4.10;;;10.20;99.90;;;;;;5006140;28;21194;-57
2024/02/08 13:30:52;;;;;;;12.60;3.60;;;10.20;99.90;;;;;;5007268;28;20483;-57
2024/02/08 13:33:18;;;;;;;17.70;3.57;;;10.10;99.90;;;;;;5012022;28;20431;-56
2024/02/08 13:35:48;;;;;;;17.70;4.27;;;10.10;99.90;;;;;;5006928;28;21241;-57
2024/02/08 13:38:15;;;;;;;13.13;3.53;;;10.10;99.90;;;;;;5003688;28;20441;-57
2024/02/08 13:40:47;;;;;;;19.97;3.93;;;10.10;99.90;;;;;;5004658;28;20439;-56
2024/02/08 13:43:13;;;;;;;18.53;4.13;;;10.00;99.90;;;;;;5003171;28;20431;-57
2024/02/08 13:45:40;;;;;;;13.70;4.77;;;10.10;99.90;;;;;;5005944;28;20562;-57
2024/02/08 13:48:12;;;;;;;19.60;3.80;;;10.00;99.90;;;;;;5009299;28;20423;-57
2024/02/08 13:50:38;;;;;;;14.73;3.40;;;10.00;99.90;;;;;;5004777;28;20514;-57
2024/02/08 13:53:03;;;;;;;17.80;4.23;;;10.00;99.90;;;;;;5007419;28;20675;-57
2024/02/08 13:55:32;;;;;;;19.93;4.40;;;10.00;99.90;;;;;;5003807;28;20436;-57
2024/02/08 13:58:00;;;;;;;22.80;4.10;;;10.00;99.90;;;;;;5006322;28;20587;-56
2024/02/08 14:00:26;;;;;;;15.57;3.70;;;10.00;99.90;;;;;;5010487;28;20530;-57
2024/02/08 14:02:53;;;;;;;23.33;3.90;;;10.00;99.90;;;;;;5009619;28;20451;-57
2024/02/08 14:05:23;;;;;;;14.53;3.47;;;10.00;99.90;;;;;;5005737;28;20481;-57
2024/02/08 14:07:54;;;;;;;12.53;3.43;;;10.00;99.90;;;;;;5009573;28;20446;-57
2024/02/08 14:10:33;;;;;;;24.37;3.93;;;10.00;99.90;;;;;;5011735;28;20483;-57
2024/02/08 14:13:00;;;;;;;25.63;4.13;;;9.90;99.90;;;;;;5011964;28;20419;-57
2024/02/08 14:15:31;;;;;;;21.93;4.50;;;9.90;99.90;;;;;;5011486;28;20934;-57
2024/02/08 14:18:10;;;;;;;18.43;3.37;;;9.90;99.90;;;;;;5004294;28;20423;-57
2024/02/08 14:20:43;;;;;;;20.00;3.57;;;10.00;99.90;;;;;;5008558;28;20431;-57
2024/02/08 14:23:14;;;;;;;28.27;4.83;;;10.00;99.90;;;;;;5010006;28;20462;-57
2024/02/08 14:26:09;;;;;;;15.03;4.03;;;10.00;99.90;;;;;;5008527;28;20423;-56
2024/02/08 14:28:39;;;;;;;17.90;5.03;;;10.00;99.90;;;;;;5010052;28;20478;-56
2024/02/08 14:31:08;;;;;;;14.87;3.60;;;9.90;99.90;;;;;;5010574;28;20458;-57
2024/02/08 14:33:35;;;;;;;15.47;3.50;;;9.90;99.90;;;;;;5007144;28;20438;-57
2024/02/08 14:36:06;;;;;;;11.13;3.70;;;9.90;99.90;;;;;;5010130;28;20980;-56
2024/02/08 14:38:34;;;;;;;23.37;4.00;;;9.80;99.90;;;;;;5008131;28;20451;-56
2024/02/08 14:40:59;;;;;;;12.63;3.90;;;9.80;99.90;;;;;;5009323;28;20494;-57
2024/02/08 14:43:25;;;;;;;19.60;4.10;;;9.80;99.90;;;;;;5006487;28;20494;-57
2024/02/08 14:45:54;;;;;;;17.03;5.03;;;9.80;99.90;;;;;;5002286;28;20665;-57
2024/02/08 14:48:27;;;;;;;17.43;4.97;;;9.80;99.90;;;;;;5007459;28;20272;-57
2024/02/08 14:51:05;;;;;;;19.27;4.93;;;9.70;99.90;;;;;;5005453;28;20506;-57
2024/02/08 14:53:40;;;;;;;15.50;4.60;;;9.70;99.90;;;;;;5007797;28;20442;-58
2024/02/08 14:56:07;;;;;;;13.60;5.00;;;9.70;99.90;;;;;;5002983;28;20478;-56
2024/02/08 14:58:33;;;;;;;18.80;4.47;;;9.70;99.90;;;;;;5003217;28;20458;-57